Time;durP1;ratioP1;P1;durP2;ratioP2;P2;SDS_P1;SDS_P2;PMS_P1;PMS_P2;Temp;Humidity;BMP_temperature;BMP_pressure;BME280_temperature;BME280_humidity;BME280_pressure;Samples;Min_cycle;Max_cycle;Signal;HPM_P1;HPM_P2
2022/07/31 00:01:45;;;;;;;8.83;6.20;;;;;;;;;;5054611;28;20321;-54
2022/07/31 00:04:11;;;;;;;8.33;6.57;;;;;;;;;;5054518;28;20206;-57
2022/07/31 00:06:38;;;;;;;10.67;6.43;;;;;;;;;;5054294;28;20214;-54
2022/07/31 00:09:04;;;;;;;9.77;6.87;;;;;;;;;;5054473;28;20281;-55
2022/07/31 00:11:30;;;;;;;10.17;6.53;;;;;;;;;;5054086;28;20251;-54
2022/07/31 00:13:56;;;;;;;12.30;7.17;;;;;;;;;;5054491;28;20203;-55
2022/07/31 00:16:21;;;;;;;8.10;6.40;;;;;;;;;;5054297;28;20790;-55
2022/07/31 00:18:49;;;;;;;7.77;6.97;;;;;;;;;;5054236;28;20205;-55
2022/07/31 00:21:15;;;;;;;9.17;7.07;;;;;;;;;;5054188;28;20665;-56
2022/07/31 00:23:41;;;;;;;9.87;7.33;;;;;;;;;;5053870;28;20195;-55
2022/07/31 00:26:07;;;;;;;8.47;6.90;;;;;;;;;;5053933;28;20702;-55
2022/07/31 00:28:33;;;;;;;8.90;6.90;;;;;;;;;;5053827;28;20572;-55
2022/07/31 00:30:59;;;;;;;7.97;7.17;;;;;;;;;;5054028;28;20236;-55
2022/07/31 00:33:25;;;;;;;6.90;6.30;;;;;;;;;;5053802;28;20213;-56
2022/07/31 00:35:52;;;;;;;10.23;6.93;;;;;;;;;;5053738;28;20600;-56
2022/07/31 00:38:18;;;;;;;8.53;6.83;;;;;;;;;;5052899;28;20224;-56
2022/07/31 00:40:45;;;;;;;7.03;6.10;;;;;;;;;;5053737;28;20194;-56
2022/07/31 00:43:13;;;;;;;9.77;6.63;;;;;;;;;;5053501;28;20723;-56
2022/07/31 00:45:39;;;;;;;8.30;6.10;;;;;;;;;;5053698;28;20245;-56
2022/07/31 00:48:05;;;;;;;6.50;5.63;;;;;;;;;;5053663;28;20249;-56
2022/07/31 00:50:31;;;;;;;6.73;6.13;;;;;;;;;;5053514;28;20252;-55
2022/07/31 00:52:59;;;;;;;8.10;6.60;;;;;;;;;;5053478;28;20230;-56
2022/07/31 00:55:25;;;;;;;6.67;5.30;;;;;;;;;;5053484;28;20211;-55
2022/07/31 00:57:51;;;;;;;6.10;5.50;;;;;;;;;;5053462;28;20207;-55
2022/07/31 01:00:17;;;;;;;6.53;5.60;;;;;;;;;;5053498;28;20251;-56
2022/07/31 01:02:43;;;;;;;6.90;5.97;;;;;;;;;;5053259;28;20198;-56
2022/07/31 01:05:09;;;;;;;8.53;6.93;;;;;;;;;;5053247;28;20213;-55
2022/07/31 01:07:35;;;;;;;8.20;6.67;;;;;;;;;;5053086;28;20570;-55
2022/07/31 01:10:04;;;;;;;9.27;6.47;;;;;;;;;;5053216;28;20572;-55
2022/07/31 01:12:33;;;;;;;7.13;6.50;;;;;;;;;;5053265;28;20661;-57
2022/07/31 01:15:01;;;;;;;8.13;6.33;;;;;;;;;;5053128;28;20770;-54
2022/07/31 01:17:29;;;;;;;7.50;6.67;;;;;;;;;;5053122;28;20205;-55
2022/07/31 01:19:55;;;;;;;7.10;6.17;;;;;;;;;;5052973;28;20253;-54
2022/07/31 01:22:29;;;;;;;8.77;7.27;;;;;;;;;;5053255;28;20313;-54
2022/07/31 01:25:03;;;;;;;8.27;6.77;;;;;;;;;;5052753;28;20557;-54
2022/07/31 01:27:37;;;;;;;10.83;7.73;;;;;;;;;;5053061;28;20285;-54
2022/07/31 01:30:04;;;;;;;8.77;6.97;;;;;;;;;;5052575;28;20204;-54
2022/07/31 01:32:34;;;;;;;7.47;6.77;;;;;;;;;;5052626;28;20224;-54
2022/07/31 01:35:02;;;;;;;9.60;6.90;;;;;;;;;;5052851;28;20206;-54
2022/07/31 01:37:30;;;;;;;9.60;7.47;;;;;;;;;;5052541;28;20202;-54
2022/07/31 01:39:59;;;;;;;7.63;7.00;;;;;;;;;;5051880;28;20957;-54
2022/07/31 01:42:25;;;;;;;9.13;7.03;;;;;;;;;;5052549;28;20204;-55
2022/07/31 01:44:54;;;;;;;8.13;7.23;;;;;;;;;;5052279;28;20328;-54
2022/07/31 01:47:22;;;;;;;8.20;7.50;;;;;;;;;;5052533;28;20213;-54
2022/07/31 01:49:49;;;;;;;8.13;6.97;;;;;;;;;;5052176;28;20729;-54
2022/07/31 01:52:15;;;;;;;10.43;7.70;;;;;;;;;;5052476;28;20235;-57
2022/07/31 01:54:42;;;;;;;8.80;7.40;;;;;;;;;;5052346;28;20220;-54
2022/07/31 02:00:12;;;;;;;9.33;7.40;;;;;;;;;;5051608;28;20648;-54
2022/07/31 02:02:40;;;;;;;8.23;7.43;;;;;;;;;;5052282;28;20564;-54
2022/07/31 02:05:07;;;;;;;7.90;7.30;;;;;;;;;;5052059;28;20674;-55
2022/07/31 02:07:34;;;;;;;8.10;7.30;;;;;;;;;;5052108;28;20680;-54
2022/07/31 02:10:00;;;;;;;9.03;6.63;;;;;;;;;;5052114;28;20243;-56
2022/07/31 02:12:27;;;;;;;8.93;8.03;;;;;;;;;;5051851;28;20228;-54
2022/07/31 02:14:55;;;;;;;7.73;7.00;;;;;;;;;;5052228;28;20196;-54
2022/07/31 02:17:21;;;;;;;6.90;6.40;;;;;;;;;;5052091;28;20206;-54
2022/07/31 02:19:49;;;;;;;7.60;6.90;;;;;;;;;;5052227;28;20209;-54
2022/07/31 02:22:15;;;;;;;7.90;7.13;;;;;;;;;;5052134;28;20232;-54
2022/07/31 02:24:41;;;;;;;8.13;7.33;;;;;;;;;;5052020;28;20235;-54
2022/07/31 02:27:07;;;;;;;7.40;6.80;;;;;;;;;;5051938;28;20530;-54
2022/07/31 02:29:33;;;;;;;7.80;7.00;;;;;;;;;;5051815;28;20207;-54
2022/07/31 02:32:00;;;;;;;7.27;6.60;;;;;;;;;;5051956;28;20228;-54
2022/07/31 02:34:27;;;;;;;9.93;8.40;;;;;;;;;;5051738;28;20259;-54
2022/07/31 02:36:54;;;;;;;8.87;7.97;;;;;;;;;;5051848;28;20507;-54
2022/07/31 02:39:21;;;;;;;8.80;7.87;;;;;;;;;;5051622;28;20205;-54
2022/07/31 02:41:48;;;;;;;7.97;7.30;;;;;;;;;;5051835;28;20188;-54
2022/07/31 02:44:15;;;;;;;8.90;8.20;;;;;;;;;;5051540;28;20279;-53
2022/07/31 02:46:42;;;;;;;9.50;8.63;;;;;;;;;;5051650;28;20931;-55
2022/07/31 02:49:08;;;;;;;10.90;9.93;;;;;;;;;;5051714;28;20223;-55
2022/07/31 02:51:34;;;;;;;11.27;8.27;;;;;;;;;;5051574;28;20238;-56
2022/07/31 02:54:02;;;;;;;12.67;9.47;;;;;;;;;;5051788;28;20291;-56
2022/07/31 02:56:28;;;;;;;12.57;9.60;;;;;;;;;;5051546;28;20205;-56
2022/07/31 02:58:54;;;;;;;11.13;10.07;;;;;;;;;;5051675;28;20204;-56
2022/07/31 03:01:20;;;;;;;11.97;10.50;;;;;;;;;;5051714;28;20243;-55
2022/07/31 03:03:46;;;;;;;11.03;10.10;;;;;;;;;;5055738;28;20196;-55
2022/07/31 03:06:13;;;;;;;13.13;11.20;;;;;;;;;;5055462;28;20288;-56
2022/07/31 03:08:39;;;;;;;12.77;11.67;;;;;;;;;;5055538;28;20196;-56
2022/07/31 03:11:06;;;;;;;13.60;12.17;;;;;;;;;;5055279;28;20220;-56
2022/07/31 03:13:34;;;;;;;14.73;13.23;;;;;;;;;;5055500;28;20284;-56
2022/07/31 03:16:01;;;;;;;14.00;12.80;;;;;;;;;;5055408;28;20266;-56
2022/07/31 03:18:28;;;;;;;13.67;12.27;;;;;;;;;;5055202;28;20200;-56
2022/07/31 03:20:54;;;;;;;14.43;13.03;;;;;;;;;;5055114;28;20290;-56
2022/07/31 03:23:21;;;;;;;13.60;12.30;;;;;;;;;;5054924;28;20196;-56
2022/07/31 03:25:48;;;;;;;14.47;12.77;;;;;;;;;;5055056;28;20680;-56
2022/07/31 03:28:15;;;;;;;13.13;11.97;;;;;;;;;;5055006;28;20716;-56
2022/07/31 03:30:41;;;;;;;14.27;12.90;;;;;;;;;;5054913;28;20220;-56
2022/07/31 03:33:07;;;;;;;14.67;13.23;;;;;;;;;;5054916;28;20559;-56
2022/07/31 03:35:33;;;;;;;14.63;13.13;;;;;;;;;;5054564;28;20196;-56
2022/07/31 03:37:59;;;;;;;13.40;12.20;;;;;;;;;;5054944;28;20200;-56
2022/07/31 03:40:25;;;;;;;14.80;13.30;;;;;;;;;;5054770;28;20196;-56
2022/07/31 03:42:52;;;;;;;17.20;15.00;;;;;;;;;;5054618;28;20208;-56
2022/07/31 03:45:20;;;;;;;16.27;14.67;;;;;;;;;;5054600;28;20243;-56
2022/07/31 03:47:46;;;;;;;14.23;12.87;;;;;;;;;;5054789;28;20204;-56
2022/07/31 03:50:13;;;;;;;16.00;14.50;;;;;;;;;;5054693;28;20258;-56
2022/07/31 03:52:39;;;;;;;16.80;14.63;;;;;;;;;;5054465;28;20785;-56
2022/07/31 03:55:06;;;;;;;14.27;13.07;;;;;;;;;;5054606;28;20243;-56
2022/07/31 03:57:33;;;;;;;16.97;15.23;;;;;;;;;;5054506;28;20211;-56
2022/07/31 04:00:01;;;;;;;16.17;14.63;;;;;;;;;;5054433;28;20208;-56
2022/07/31 04:02:28;;;;;;;17.73;16.00;;;;;;;;;;5054376;28;20215;-55
2022/07/31 04:04:56;;;;;;;16.20;14.80;;;;;;;;;;5054306;28;20644;-55
2022/07/31 04:07:22;;;;;;;14.60;13.30;;;;;;;;;;5054323;28;20212;-55
2022/07/31 04:09:48;;;;;;;15.17;13.73;;;;;;;;;;5054317;28;20200;-55
2022/07/31 04:12:14;;;;;;;17.33;15.83;;;;;;;;;;5053746;28;20220;-55
2022/07/31 04:14:40;;;;;;;18.17;16.40;;;;;;;;;;5054276;28;20674;-56
2022/07/31 04:17:06;;;;;;;17.70;16.00;;;;;;;;;;5054049;28;20196;-56
2022/07/31 04:19:33;;;;;;;17.27;15.60;;;;;;;;;;5054077;28;20212;-55
2022/07/31 04:22:00;;;;;;;16.97;15.40;;;;;;;;;;5054204;28;20207;-55
2022/07/31 04:24:26;;;;;;;21.70;19.50;;;;;;;;;;5053824;28;20208;-56
2022/07/31 04:26:54;;;;;;;23.30;18.00;;;;;;;;;;5054010;28;20604;-55
2022/07/31 04:29:20;;;;;;;17.10;15.50;;;;;;;;;;5053865;28;20192;-55
2022/07/31 04:31:46;;;;;;;19.60;16.43;;;;;;;;;;5053833;28;20740;-55
2022/07/31 04:34:12;;;;;;;17.07;15.63;;;;;;;;;;5053810;28;20193;-55
2022/07/31 04:36:40;;;;;;;17.90;16.30;;;;;;;;;;5053832;28;20219;-56
2022/07/31 04:39:06;;;;;;;15.73;14.33;;;;;;;;;;5053853;28;20304;-55
2022/07/31 04:41:32;;;;;;;19.77;17.70;;;;;;;;;;5053662;28;20720;-55
2022/07/31 04:43:58;;;;;;;17.30;15.80;;;;;;;;;;5053591;28;20323;-55
2022/07/31 04:46:24;;;;;;;19.03;17.13;;;;;;;;;;5053555;28;20250;-55
2022/07/31 04:48:50;;;;;;;17.93;16.23;;;;;;;;;;5053601;28;20208;-55
2022/07/31 04:51:17;;;;;;;16.67;15.00;;;;;;;;;;5053373;28;20247;-55
2022/07/31 04:53:44;;;;;;;16.80;15.30;;;;;;;;;;5053562;28;20202;-55
2022/07/31 04:58:55;;;;;;;16.97;15.37;;;;;;;;;;5053624;28;20195;-56
2022/07/31 05:01:21;;;;;;;18.20;16.53;;;;;;;;;;5053316;28;20204;-56
2022/07/31 05:03:47;;;;;;;17.63;15.93;;;;;;;;;;5053603;28;20205;-55
2022/07/31 05:06:13;;;;;;;19.00;17.20;;;;;;;;;;5053304;28;20620;-55
2022/07/31 05:08:39;;;;;;;17.40;15.67;;;;;;;;;;5053359;28;20201;-55
2022/07/31 05:11:22;;;;;;;17.63;16.03;;;;;;;;;;5053096;28;20228;-56
2022/07/31 05:13:48;;;;;;;16.67;15.13;;;;;;;;;;5053330;28;20286;-56
2022/07/31 05:16:14;;;;;;;18.20;16.40;;;;;;;;;;5053065;28;20636;-55
2022/07/31 05:18:40;;;;;;;18.90;16.83;;;;;;;;;;5053048;28;20197;-55
2022/07/31 05:21:06;;;;;;;17.70;16.10;;;;;;;;;;5053059;28;20219;-55
2022/07/31 05:23:32;;;;;;;18.63;16.90;;;;;;;;;;5052664;28;20216;-56
2022/07/31 05:25:58;;;;;;;18.23;16.30;;;;;;;;;;5052443;28;20671;-55
2022/07/31 05:28:26;;;;;;;17.60;16.03;;;;;;;;;;5052807;28;20206;-56
2022/07/31 05:30:52;;;;;;;18.07;16.23;;;;;;;;;;5052842;28;20219;-55
2022/07/31 05:33:18;;;;;;;18.13;16.37;;;;;;;;;;5052610;28;20220;-56
2022/07/31 05:35:44;;;;;;;17.13;15.50;;;;;;;;;;5052646;28;20239;-56
2022/07/31 05:38:10;;;;;;;17.53;15.83;;;;;;;;;;5052542;28;20205;-56
2022/07/31 05:40:35;;;;;;;18.87;16.97;;;;;;;;;;5052567;28;20572;-56
2022/07/31 05:43:02;;;;;;;18.43;16.63;;;;;;;;;;5052599;28;20235;-56
2022/07/31 05:45:29;;;;;;;17.80;16.07;;;;;;;;;;5052569;28;20218;-56
2022/07/31 05:47:55;;;;;;;16.40;14.80;;;;;;;;;;5052631;28;20211;-54
2022/07/31 05:50:22;;;;;;;15.97;14.50;;;;;;;;;;5052367;28;20200;-55
2022/07/31 05:52:51;;;;;;;14.97;13.73;;;;;;;;;;5052534;28;20617;-55
2022/07/31 05:55:17;;;;;;;15.83;13.13;;;;;;;;;;5052366;28;20206;-56
2022/07/31 05:57:43;;;;;;;14.23;12.93;;;;;;;;;;5052448;28;20205;-56
2022/07/31 06:00:09;;;;;;;15.50;13.90;;;;;;;;;;5052358;28;20206;-55
2022/07/31 06:02:37;;;;;;;15.40;13.67;;;;;;;;;;5052173;28;20538;-55
2022/07/31 06:05:03;;;;;;;14.20;12.60;;;;;;;;;;5051977;28;20210;-57
2022/07/31 06:07:29;;;;;;;14.40;12.17;;;;;;;;;;5052107;28;20715;-56
2022/07/31 06:09:55;;;;;;;13.47;11.90;;;;;;;;;;5052075;28;20207;-57
2022/07/31 06:12:21;;;;;;;11.73;10.67;;;;;;;;;;5051825;28;20232;-56
2022/07/31 06:14:47;;;;;;;14.97;10.50;;;;;;;;;;5051727;28;20206;-56
2022/07/31 06:17:13;;;;;;;11.57;10.03;;;;;;;;;;5051882;28;20210;-55
2022/07/31 06:19:40;;;;;;;12.10;10.90;;;;;;;;;;5052056;28;20230;-56
2022/07/31 06:22:06;;;;;;;15.70;9.60;;;;;;;;;;5052027;28;20215;-56
2022/07/31 06:24:32;;;;;;;11.40;9.30;;;;;;;;;;5051855;28;20196;-56
2022/07/31 06:27:01;;;;;;;10.90;9.60;;;;;;;;;;5051830;28;20192;-55
2022/07/31 06:29:27;;;;;;;10.33;8.27;;;;;;;;;;5051814;28;20232;-56
2022/07/31 06:31:53;;;;;;;11.93;8.50;;;;;;;;;;5052095;28;20227;-56
2022/07/31 06:34:19;;;;;;;9.30;8.40;;;;;;;;;;5051854;28;20199;-56
2022/07/31 06:36:46;;;;;;;9.83;7.80;;;;;;;;;;5053154;28;20290;-56
2022/07/31 06:39:12;;;;;;;8.10;7.30;;;;;;;;;;5056030;28;20661;-57
2022/07/31 06:41:47;;;;;;;10.23;7.07;;;;;;;;;;5055251;28;20192;-55
2022/07/31 06:44:14;;;;;;;9.47;7.23;;;;;;;;;;5055340;28;20273;-55
2022/07/31 06:46:40;;;;;;;9.90;6.60;;;;;;;;;;5055950;28;20210;-56
2022/07/31 06:49:06;;;;;;;8.27;6.27;;;;;;;;;;5055670;28;20192;-57
2022/07/31 06:51:32;;;;;;;6.97;5.60;;;;;;;;;;5055791;28;20285;-55
2022/07/31 06:54:00;;;;;;;11.57;5.80;;;;;;;;;;5055690;28;20204;-55
2022/07/31 06:56:26;;;;;;;6.47;4.80;;;;;;;;;;5055511;28;20646;-55
2022/07/31 06:58:53;;;;;;;10.87;5.63;;;;;;;;;;5055827;28;20291;-56
2022/07/31 07:01:19;;;;;;;5.57;4.30;;;;;;;;;;5055583;28;20654;-55
2022/07/31 07:03:46;;;;;;;7.27;4.37;;;;;;;;;;5055829;28;20228;-55
2022/07/31 07:06:12;;;;;;;5.90;4.40;;;;;;;;;;5055510;28;20205;-55
2022/07/31 07:08:38;;;;;;;8.80;4.80;;;;;;;;;;5055581;28;20247;-57
2022/07/31 07:11:05;;;;;;;8.50;4.57;;;;;;;;;;5055141;28;20219;-56
2022/07/31 07:13:31;;;;;;;8.43;4.30;;;;;;;;;;5055591;28;20211;-56
2022/07/31 07:15:57;;;;;;;6.10;3.90;;;;;;;;;;5055589;28;20204;-55
2022/07/31 07:18:23;;;;;;;6.77;4.00;;;;;;;;;;5055180;28;20200;-56
2022/07/31 07:20:49;;;;;;;4.87;4.20;;;;;;;;;;5055393;28;20192;-54
2022/07/31 07:23:15;;;;;;;4.03;3.53;;;;;;;;;;5055345;28;20196;-53
2022/07/31 07:25:41;;;;;;;4.73;3.83;;;;;;;;;;5055221;28;20207;-54
2022/07/31 07:28:09;;;;;;;4.63;3.50;;;;;;;;;;5055300;28;20204;-54
2022/07/31 07:30:35;;;;;;;4.10;3.57;;;;;;;;;;5055058;28;20192;-54
2022/07/31 07:33:01;;;;;;;6.80;3.70;;;;;;;;;;5054991;28;20238;-54
2022/07/31 07:35:28;;;;;;;4.90;3.50;;;;;;;;;;5054938;28;20291;-54
2022/07/31 07:37:54;;;;;;;7.83;3.83;;;;;;;;;;5055131;28;20201;-54
2022/07/31 07:40:20;;;;;;;13.77;3.67;;;;;;;;;;5054792;28;20200;-57
2022/07/31 07:42:47;;;;;;;5.97;3.43;;;;;;;;;;5051174;28;20249;-54
2022/07/31 07:45:14;;;;;;;4.00;3.00;;;;;;;;;;5054054;28;20259;-54
2022/07/31 07:47:40;;;;;;;8.07;3.47;;;;;;;;;;5053505;28;20202;-54
2022/07/31 07:50:07;;;;;;;3.70;3.17;;;;;;;;;;5053968;28;20207;-54
2022/07/31 07:52:33;;;;;;;4.37;3.40;;;;;;;;;;5054263;28;20273;-54
2022/07/31 07:54:59;;;;;;;15.73;3.47;;;;;;;;;;5054605;28;20200;-55
2022/07/31 07:57:25;;;;;;;8.07;2.90;;;;;;;;;;5054490;28;20196;-56
2022/07/31 07:59:51;;;;;;;4.97;2.83;;;;;;;;;;5054543;28;20222;-55
2022/07/31 08:02:19;;;;;;;6.50;3.00;;;;;;;;;;5054389;28;20200;-56
2022/07/31 08:04:45;;;;;;;6.00;2.90;;;;;;;;;;5054368;28;20203;-54
2022/07/31 08:07:11;;;;;;;3.83;2.70;;;;;;;;;;5054332;28;20201;-55
2022/07/31 08:09:38;;;;;;;5.40;3.07;;;;;;;;;;5053914;28;20200;-55
2022/07/31 08:12:05;;;;;;;3.93;2.60;;;;;;;;;;5053897;28;20623;-54
2022/07/31 08:14:31;;;;;;;4.63;2.93;;;;;;;;;;5054120;28;20216;-55
2022/07/31 08:16:57;;;;;;;5.00;2.90;;;;;;;;;;5054020;28;20213;-54
2022/07/31 08:19:24;;;;;;;4.50;2.70;;;;;;;;;;5053947;28;20203;-55
2022/07/31 08:21:50;;;;;;;4.07;2.50;;;;;;;;;;5053883;28;20201;-55
2022/07/31 08:24:16;;;;;;;6.53;2.60;;;;;;;;;;5053963;28;20211;-55
2022/07/31 08:29:27;;;;;;;4.40;2.87;;;;;;;;;;5053941;28;20219;-54
2022/07/31 08:31:54;;;;;;;3.40;2.63;;;;;;;;;;5053847;28;20220;-54
2022/07/31 08:34:20;;;;;;;4.60;2.70;;;;;;;;;;5053732;28;20197;-56
2022/07/31 08:36:47;;;;;;;2.97;2.23;;;;;;;;;;5053820;28;20205;-54
2022/07/31 08:39:13;;;;;;;4.10;2.50;;;;;;;;;;5053676;28;20225;-55
2022/07/31 08:41:39;;;;;;;5.20;2.37;;;;;;;;;;5053569;28;20225;-56
2022/07/31 08:44:05;;;;;;;7.27;2.70;;;;;;;;;;5053516;28;20668;-56
2022/07/31 08:46:31;;;;;;;4.23;2.70;;;;;;;;;;5053560;28;20236;-56
2022/07/31 08:48:59;;;;;;;4.17;2.40;;;;;;;;;;5052871;28;20669;-55
2022/07/31 08:51:25;;;;;;;4.53;2.70;;;;;;;;;;5051456;28;20229;-56
2022/07/31 08:53:53;;;;;;;3.83;2.50;;;;;;;;;;5053277;28;20210;-55
2022/07/31 08:56:19;;;;;;;3.53;2.27;;;;;;;;;;5053266;28;20272;-55
2022/07/31 08:58:45;;;;;;;3.03;2.43;;;;;;;;;;5052858;28;20208;-55
2022/07/31 09:01:12;;;;;;;4.23;2.10;;;;;;;;;;5051166;28;20269;-55
2022/07/31 09:03:38;;;;;;;4.77;2.23;;;;;;;;;;5053164;28;20229;-56
2022/07/31 09:06:05;;;;;;;6.83;2.53;;;;;;;;;;5053209;28;20202;-54
2022/07/31 09:08:31;;;;;;;3.03;2.40;;;;;;;;;;5053131;28;20297;-55
2022/07/31 09:11:02;;;;;;;5.83;2.53;;;;;;;;;;5053189;28;20668;-54
2022/07/31 09:13:29;;;;;;;2.90;1.97;;;;;;;;;;5053107;28;20202;-55
2022/07/31 09:15:57;;;;;;;2.43;2.20;;;;;;;;;;5053136;28;20198;-54
2022/07/31 09:18:24;;;;;;;6.53;2.87;;;;;;;;;;5052961;28;20195;-55
2022/07/31 09:20:54;;;;;;;4.57;2.47;;;;;;;;;;5053072;28;20205;-56
2022/07/31 09:23:21;;;;;;;6.63;2.77;;;;;;;;;;5052899;28;20205;-55
2022/07/31 09:25:50;;;;;;;2.80;1.97;;;;;;;;;;5052588;28;20576;-55
2022/07/31 09:28:18;;;;;;;2.93;2.20;;;;;;;;;;5052870;28;20195;-55
2022/07/31 09:30:53;;;;;;;3.73;2.50;;;;;;;;;;5052761;28;20278;-55
2022/07/31 09:33:20;;;;;;;3.80;2.10;;;;;;;;;;5052927;28;20607;-55
2022/07/31 09:35:47;;;;;;;3.47;2.30;;;;;;;;;;5052748;28;20657;-54
2022/07/31 09:38:13;;;;;;;3.63;2.50;;;;;;;;;;5034990;28;20203;-55
2022/07/31 09:40:42;;;;;;;5.87;2.37;;;;;;;;;;5052652;28;20207;-54
2022/07/31 09:43:13;;;;;;;4.00;2.20;;;;;;;;;;5052687;28;20201;-55
2022/07/31 09:45:43;;;;;;;3.27;2.63;;;;;;;;;;5052705;28;20223;-55
2022/07/31 09:48:14;;;;;;;3.03;2.60;;;;;;;;;;5052800;28;20218;-55
2022/07/31 09:50:51;;;;;;;4.43;2.53;;;;;;;;;;5052491;28;20215;-55
2022/07/31 09:53:18;;;;;;;4.43;2.50;;;;;;;;;;5052488;28;20204;-54
2022/07/31 09:55:48;;;;;;;3.93;2.70;;;;;;;;;;5052559;28;20222;-55
2022/07/31 09:58:14;;;;;;;3.63;2.67;;;;;;;;;;5052687;28;20256;-55
2022/07/31 10:00:42;;;;;;;4.63;2.90;;;;;;;;;;5052481;28;20199;-56
2022/07/31 10:03:08;;;;;;;6.53;3.10;;;;;;;;;;5052475;28;20600;-55
2022/07/31 10:05:35;;;;;;;5.53;4.07;;;;;;;;;;5052498;28;20227;-55
2022/07/31 10:08:01;;;;;;;5.63;2.93;;;;;;;;;;5052657;28;20198;-55
2022/07/31 10:10:29;;;;;;;12.67;9.63;;;;;;;;;;5052111;28;20289;-55
2022/07/31 10:12:55;;;;;;;45.93;41.23;;;;;;;;;;5050182;28;20635;-55
2022/07/31 10:15:22;;;;;;;3.33;2.63;;;;;;;;;;5052327;28;20290;-56
2022/07/31 10:17:51;;;;;;;8.30;2.57;;;;;;;;;;5052224;28;20200;-55
2022/07/31 10:20:20;;;;;;;2.87;2.07;;;;;;;;;;5052150;28;20222;-55
2022/07/31 10:22:46;;;;;;;2.53;2.00;;;;;;;;;;5052131;28;20205;-55
2022/07/31 10:25:16;;;;;;;1.80;1.70;;;;;;;;;;5052198;28;20206;-54
2022/07/31 10:27:43;;;;;;;5.27;3.77;;;;;;;;;;5052113;28;20210;-56
2022/07/31 10:30:09;;;;;;;2.83;2.10;;;;;;;;;;5052132;28;20201;-56
2022/07/31 10:32:35;;;;;;;5.80;3.53;;;;;;;;;;5051893;28;20254;-55
2022/07/31 10:35:05;;;;;;;3.10;1.93;;;;;;;;;;5052110;28;20207;-55
2022/07/31 10:37:33;;;;;;;2.87;1.97;;;;;;;;;;5051921;28;20196;-54
2022/07/31 10:40:02;;;;;;;3.87;2.00;;;;;;;;;;5051993;28;20210;-54
2022/07/31 10:42:33;;;;;;;5.30;2.00;;;;;;;;;;5051834;28;20283;-54
2022/07/31 10:45:03;;;;;;;2.97;1.80;;;;;;;;;;5051815;28;20315;-55
2022/07/31 10:47:29;;;;;;;5.93;1.97;;;;;;;;;;5051806;28;20214;-55
2022/07/31 10:49:55;;;;;;;5.33;2.60;;;;;;;;;;5051499;28;20197;-54
2022/07/31 10:52:29;;;;;;;2.93;2.07;;;;;;;;;;5051216;28;20224;-55
2022/07/31 10:54:57;;;;;;;2.57;2.17;;;;;;;;;;5051920;28;20220;-55
2022/07/31 10:57:25;;;;;;;3.50;2.00;;;;;;;;;;5051941;28;20228;-56
2022/07/31 10:59:51;;;;;;;3.53;2.00;;;;;;;;;;5051874;28;20244;-54
2022/07/31 11:02:28;;;;;;;4.90;2.17;;;;;;;;;;5051724;28;20202;-54
2022/07/31 11:05:05;;;;;;;2.80;1.90;;;;;;;;;;5051919;28;20257;-55
2022/07/31 11:07:33;;;;;;;3.20;2.10;;;;;;;;;;5051774;28;20590;-53
2022/07/31 11:10:07;;;;;;;3.33;2.03;;;;;;;;;;5051706;28;20213;-56
2022/07/31 11:12:33;;;;;;;4.43;2.13;;;;;;;;;;5051666;28;20219;-55
2022/07/31 11:14:59;;;;;;;2.60;1.87;;;;;;;;;;5051862;28;20198;-55
2022/07/31 11:17:32;;;;;;;3.47;2.00;;;;;;;;;;5051655;28;20617;-56
2022/07/31 11:19:58;;;;;;;2.47;2.00;;;;;;;;;;5051519;28;20279;-55
2022/07/31 11:22:24;;;;;;;3.57;1.97;;;;;;;;;;5051975;28;20197;-54
2022/07/31 11:24:54;;;;;;;4.07;2.10;;;;;;;;;;5055446;28;20192;-54
2022/07/31 11:27:29;;;;;;;3.67;1.90;;;;;;;;;;5055448;28;20227;-54
2022/07/31 11:30:02;;;;;;;4.10;2.30;;;;;;;;;;5055546;28;20203;-55
2022/07/31 11:32:28;;;;;;;3.33;2.00;;;;;;;;;;5055187;28;20311;-55
2022/07/31 11:34:55;;;;;;;3.07;2.47;;;;;;;;;;5055401;28;20735;-54
2022/07/31 11:37:25;;;;;;;5.07;2.10;;;;;;;;;;5054873;28;20200;-55
2022/07/31 11:39:51;;;;;;;3.60;2.40;;;;;;;;;;5054740;28;20278;-54
2022/07/31 11:42:19;;;;;;;2.70;2.17;;;;;;;;;;5054915;28;20202;-54
2022/07/31 11:44:46;;;;;;;4.80;2.17;;;;;;;;;;5054684;28;20232;-54
2022/07/31 11:47:12;;;;;;;3.93;2.20;;;;;;;;;;5054795;28;20250;-54
2022/07/31 11:49:38;;;;;;;4.37;2.33;;;;;;;;;;5054510;28;20205;-54
2022/07/31 11:52:06;;;;;;;3.03;2.10;;;;;;;;;;5054235;28;20230;-54
2022/07/31 11:54:32;;;;;;;2.77;1.83;;;;;;;;;;5053346;28;20227;-55
2022/07/31 11:56:58;;;;;;;8.93;2.30;;;;;;;;;;5041752;28;20201;-54
2022/07/31 11:59:30;;;;;;;2.93;2.13;;;;;;;;;;5042514;28;20562;-54
2022/07/31 12:02:02;;;;;;;4.20;2.33;;;;;;;;;;5044217;28;20194;-54
2022/07/31 12:04:29;;;;;;;2.73;1.90;;;;;;;;;;5043415;28;20670;-54
2022/07/31 12:06:55;;;;;;;4.27;1.87;;;;;;;;;;5042136;28;20240;-54
2022/07/31 12:09:21;;;;;;;3.17;2.20;;;;;;;;;;5043473;28;20189;-55
2022/07/31 12:11:47;;;;;;;4.13;1.93;;;;;;;;;;5043237;28;20231;-54
2022/07/31 12:14:13;;;;;;;4.50;2.60;;;;;;;;;;5042038;28;20228;-55
2022/07/31 12:16:42;;;;;;;20.53;14.43;;;;;;;;;;5043636;28;20192;-54
2022/07/31 12:19:08;;;;;;;6.40;4.50;;;;;;;;;;5043280;28;20206;-54
2022/07/31 12:21:35;;;;;;;43.00;36.80;;;;;;;;;;5041301;28;20651;-55
2022/07/31 12:24:01;;;;;;;7.20;4.07;;;;;;;;;;5034259;28;20201;-55
2022/07/31 12:26:28;;;;;;;4.23;2.30;;;;;;;;;;5034270;28;20207;-55
2022/07/31 12:28:59;;;;;;;4.23;2.50;;;;;;;;;;5034486;28;20201;-55
2022/07/31 12:31:25;;;;;;;3.40;2.30;;;;;;;;;;5034126;28;20692;-55
2022/07/31 12:33:52;;;;;;;5.07;2.90;;;;;;;;;;5033216;28;20670;-55
2022/07/31 12:36:18;;;;;;;2.40;2.20;;;;;;;;;;5032990;28;20210;-55
2022/07/31 12:38:45;;;;;;;4.00;2.23;;;;;;;;;;5033242;28;20581;-55
2022/07/31 12:41:11;;;;;;;2.93;2.30;;;;;;;;;;5033657;28;20686;-56
2022/07/31 12:43:37;;;;;;;6.43;2.30;;;;;;;;;;5033641;28;20237;-55
2022/07/31 12:46:06;;;;;;;3.27;2.80;;;;;;;;;;5033943;28;20193;-55
2022/07/31 12:48:32;;;;;;;3.30;2.47;;;;;;;;;;5033805;28;20227;-55
2022/07/31 12:51:00;;;;;;;5.17;2.00;;;;;;;;;;5033946;28;20242;-54
2022/07/31 12:53:27;;;;;;;4.93;3.07;;;;;;;;;;5033323;28;20224;-54
2022/07/31 12:55:53;;;;;;;9.70;3.40;;;;;;;;;;5032217;28;20206;-55
2022/07/31 12:58:19;;;;;;;4.70;2.60;;;;;;;;;;5032776;28;20196;-55
2022/07/31 13:00:45;;;;;;;2.80;2.50;;;;;;;;;;5032998;28;20204;-55
2022/07/31 13:03:11;;;;;;;3.97;2.97;;;;;;;;;;5032936;28;20220;-54
2022/07/31 13:05:37;;;;;;;3.07;2.20;;;;;;;;;;5032515;28;20228;-54
2022/07/31 13:08:06;;;;;;;4.10;2.90;;;;;;;;;;5033225;28;20206;-51
2022/07/31 13:10:33;;;;;;;2.40;2.17;;;;;;;;;;5033286;28;20220;-51
2022/07/31 13:12:59;;;;;;;5.53;2.63;;;;;;;;;;5033163;28;20228;-52
2022/07/31 13:15:31;;;;;;;3.10;2.60;;;;;;;;;;5052845;28;20205;-50
2022/07/31 13:17:57;;;;;;;4.70;3.30;;;;;;;;;;5058461;28;20275;-55
2022/07/31 13:20:23;;;;;;;7.63;2.77;;;;;;;;;;5051851;28;20785;-57
2022/07/31 13:22:49;;;;;;;5.87;4.87;;;;;;;;;;5052573;28;20192;-57
2022/07/31 13:25:18;;;;;;;2.87;2.33;;;;;;;;;;5053096;28;20289;-57
2022/07/31 13:27:44;;;;;;;2.43;2.00;;;;;;;;;;5053068;28;20212;-58
2022/07/31 13:30:10;;;;;;;3.57;2.07;;;;;;;;;;5053011;28;20636;-57
2022/07/31 13:32:36;;;;;;;2.33;1.90;;;;;;;;;;5050708;28;20248;-58
2022/07/31 13:35:03;;;;;;;3.77;2.17;;;;;;;;;;5051110;28;20790;-58
2022/07/31 13:37:29;;;;;;;2.60;2.40;;;;;;;;;;5052759;28;20197;-57
2022/07/31 13:39:55;;;;;;;5.50;2.20;;;;;;;;;;5052502;28;20208;-57
2022/07/31 13:42:22;;;;;;;3.17;2.43;;;;;;;;;;5051936;28;20247;-57
2022/07/31 13:44:48;;;;;;;3.60;2.17;;;;;;;;;;5049600;28;20604;-56
2022/07/31 13:47:14;;;;;;;3.80;2.40;;;;;;;;;;5051950;28;20663;-57
2022/07/31 13:49:40;;;;;;;5.53;2.60;;;;;;;;;;5052353;28;20196;-57
2022/07/31 13:52:06;;;;;;;4.53;2.37;;;;;;;;;;5052246;28;20316;-57
2022/07/31 13:54:32;;;;;;;3.83;2.00;;;;;;;;;;5052095;28;20223;-57
2022/07/31 13:56:58;;;;;;;5.20;2.20;;;;;;;;;;5052452;28;20224;-56
2022/07/31 13:59:26;;;;;;;3.20;2.20;;;;;;;;;;5052291;28;20246;-55
2022/07/31 14:01:52;;;;;;;2.87;2.10;;;;;;;;;;5052190;28;20258;-56
2022/07/31 14:04:18;;;;;;;3.43;2.30;;;;;;;;;;5052141;28;20745;-56
2022/07/31 14:06:45;;;;;;;2.67;2.07;;;;;;;;;;5051894;28;20199;-56
2022/07/31 14:09:11;;;;;;;4.13;2.50;;;;;;;;;;5051951;28;20571;-55
2022/07/31 14:11:37;;;;;;;5.40;2.70;;;;;;;;;;5051941;28;20322;-55
2022/07/31 14:14:03;;;;;;;5.03;2.57;;;;;;;;;;5051847;28;20659;-56
2022/07/31 14:16:31;;;;;;;2.67;2.37;;;;;;;;;;5051993;28;20199;-56
2022/07/31 14:18:56;;;;;;;4.10;2.83;;;;;;;;;;5051676;28;20230;-57
2022/07/31 14:21:22;;;;;;;4.10;2.97;;;;;;;;;;5051847;28;20207;-56
2022/07/31 14:23:48;;;;;;;4.23;2.57;;;;;;;;;;5051921;28;20200;-57
2022/07/31 14:26:15;;;;;;;4.03;2.70;;;;;;;;;;5051989;28;20203;-57
2022/07/31 14:28:41;;;;;;;3.33;2.63;;;;;;;;;;5045974;28;20765;-56
2022/07/31 14:31:07;;;;;;;3.17;2.87;;;;;;;;;;5030272;28;20298;-57
2022/07/31 14:33:34;;;;;;;4.67;2.90;;;;;;;;;;5013955;28;20327;-56
2022/07/31 14:36:02;;;;;;;3.63;2.80;;;;;;;;;;5030138;28;20211;-55
2022/07/31 14:38:28;;;;;;;3.83;2.97;;;;;;;;;;5031855;28;20728;-56
2022/07/31 14:40:54;;;;;;;4.43;2.90;;;;;;;;;;5031973;28;20207;-56
2022/07/31 14:43:20;;;;;;;4.40;2.60;;;;;;;;;;5031545;28;20290;-55